createdAt,value
2023-05-05T00:00:04.859Z,0.00
2023-05-05T00:01:04.928Z,0.00
2023-05-05T00:02:05.159Z,0.00
2023-05-05T00:03:05.567Z,0.00
2023-05-05T00:04:05.860Z,0.00
2023-05-05T00:05:06.046Z,0.00
2023-05-05T00:06:06.412Z,0.00
2023-05-05T00:07:06.838Z,0.00
2023-05-05T00:08:07.029Z,0.00
2023-05-05T00:09:07.302Z,0.00
2023-05-05T00:10:07.889Z,0.00
2023-05-05T00:11:07.852Z,0.00
2023-05-05T00:12:08.229Z,0.00
2023-05-05T00:13:08.601Z,0.00
2023-05-05T00:14:08.709Z,0.00
2023-05-05T00:15:09.067Z,0.00
2023-05-05T00:16:09.312Z,0.00
2023-05-05T00:17:09.717Z,0.00
2023-05-05T00:18:09.906Z,1.00
2023-05-05T00:19:10.284Z,0.00
2023-05-05T00:20:10.638Z,0.00
2023-05-05T00:21:10.896Z,0.00
2023-05-05T00:22:11.115Z,0.00
2023-05-05T00:23:11.361Z,0.00
2023-05-05T00:24:11.697Z,0.00
2023-05-05T00:25:11.989Z,0.00
2023-05-05T00:26:12.198Z,0.00
2023-05-05T00:27:12.470Z,0.00
2023-05-05T00:28:12.836Z,0.00
2023-05-05T00:29:12.981Z,1.00
2023-05-05T00:30:13.386Z,0.00
2023-05-05T00:31:13.703Z,0.00
2023-05-05T00:32:13.966Z,0.00
2023-05-05T00:33:14.286Z,0.00
2023-05-05T00:34:14.524Z,0.00
2023-05-05T00:35:14.879Z,0.00
2023-05-05T00:36:15.047Z,0.00
2023-05-05T00:37:15.432Z,0.00
2023-05-05T00:38:15.777Z,0.00
2023-05-05T00:39:16.169Z,0.00
2023-05-05T00:40:16.302Z,0.00
2023-05-05T00:41:16.636Z,0.00
2023-05-05T00:42:16.884Z,1.00
2023-05-05T00:43:18.102Z,0.00
2023-05-05T00:44:17.397Z,0.00
2023-05-05T00:45:17.716Z,0.00
2023-05-05T00:46:18.011Z,0.00
2023-05-05T00:47:18.430Z,0.00
2023-05-05T00:48:18.663Z,0.00
2023-05-05T00:49:19.032Z,0.00
2023-05-05T00:50:19.255Z,0.00
2023-05-05T00:51:19.571Z,0.00
2023-05-05T00:52:19.920Z,0.00
2023-05-05T00:53:20.212Z,0.00
2023-05-05T00:54:20.487Z,0.00
2023-05-05T00:55:20.805Z,0.00
2023-05-05T00:56:21.130Z,0.00
2023-05-05T00:57:21.418Z,0.00
2023-05-05T00:58:21.659Z,0.00
2023-05-05T00:59:22.002Z,0.00
2023-05-05T01:00:22.387Z,0.00
2023-05-05T01:01:22.728Z,0.00
2023-05-05T01:02:22.995Z,0.00
2023-05-05T01:03:23.447Z,0.00
2023-05-05T01:04:23.620Z,0.00
2023-05-05T01:05:23.855Z,0.00
2023-05-05T01:06:24.153Z,0.00
2023-05-05T01:07:24.464Z,0.00
2023-05-05T01:08:24.730Z,0.00
2023-05-05T01:09:25.055Z,0.00
2023-05-05T01:10:25.635Z,1.00
2023-05-05T01:11:25.585Z,0.00
2023-05-05T01:12:25.939Z,0.00
2023-05-05T01:13:26.201Z,0.00
2023-05-05T01:14:26.463Z,0.00
2023-05-05T01:15:26.845Z,0.00
2023-05-05T01:16:27.168Z,0.00
2023-05-05T01:17:27.337Z,0.00
2023-05-05T01:18:27.819Z,0.00
2023-05-05T01:19:27.837Z,0.00
2023-05-05T01:20:28.174Z,0.00
2023-05-05T01:21:28.400Z,0.00
2023-05-05T01:22:28.684Z,0.00
2023-05-05T01:23:29.055Z,0.00
2023-05-05T01:24:29.341Z,0.00
2023-05-05T01:25:29.578Z,0.00
2023-05-05T01:26:29.862Z,0.00
2023-05-05T01:27:30.099Z,0.00
2023-05-05T01:28:30.424Z,0.00
2023-05-05T01:29:30.657Z,0.00
2023-05-05T01:30:31.165Z,0.00
2023-05-05T01:31:31.262Z,0.00
2023-05-05T01:32:31.591Z,0.00
2023-05-05T01:33:31.874Z,0.00
2023-05-05T01:34:32.154Z,0.00
2023-05-05T01:35:32.468Z,0.00
2023-05-05T01:36:32.823Z,0.00
2023-05-05T01:37:34.351Z,0.00
2023-05-05T01:38:33.400Z,0.00
2023-05-05T01:39:33.673Z,0.00
2023-05-05T01:40:34.017Z,0.00
2023-05-05T01:41:34.270Z,0.00
2023-05-05T01:42:34.575Z,0.00
2023-05-05T01:43:34.955Z,0.00
2023-05-05T01:44:35.165Z,0.00
2023-05-05T01:45:35.490Z,0.00
2023-05-05T01:46:35.753Z,0.00
2023-05-05T01:47:36.073Z,0.00
2023-05-05T01:48:36.358Z,0.00
2023-05-05T01:49:36.702Z,0.00
2023-05-05T01:50:37.019Z,0.00
2023-05-05T01:51:37.368Z,0.00
2023-05-05T01:52:37.620Z,0.00
2023-05-05T01:53:37.893Z,0.00
2023-05-05T01:54:38.229Z,0.00
2023-05-05T01:55:38.496Z,0.00
2023-05-05T01:56:38.856Z,0.00
2023-05-05T01:57:39.101Z,0.00
2023-05-05T01:58:39.400Z,0.00
2023-05-05T01:59:39.709Z,0.00
2023-05-05T02:00:40.052Z,0.00
2023-05-05T02:01:40.358Z,0.00
2023-05-05T02:02:40.721Z,0.00
2023-05-05T02:03:40.910Z,0.00
2023-05-05T02:04:41.160Z,0.00
2023-05-05T02:05:41.493Z,0.00
2023-05-05T02:06:41.976Z,0.00
2023-05-05T02:07:42.133Z,0.00
2023-05-05T02:08:42.395Z,0.00
2023-05-05T02:09:42.695Z,0.00
2023-05-05T02:10:42.997Z,0.00
2023-05-05T02:11:43.411Z,0.00
2023-05-05T02:12:43.545Z,0.00
2023-05-05T02:13:43.904Z,0.00
2023-05-05T02:14:44.168Z,0.00
2023-05-05T02:15:44.511Z,0.00
2023-05-05T02:16:44.674Z,0.00
2023-05-05T02:17:44.999Z,0.00
2023-05-05T02:18:45.324Z,0.00
2023-05-05T02:19:45.699Z,0.00
2023-05-05T02:20:45.902Z,0.00
2023-05-05T02:21:46.205Z,0.00
2023-05-05T02:22:46.481Z,0.00
2023-05-05T02:23:47.201Z,0.00
2023-05-05T02:24:47.585Z,0.00
2023-05-05T02:25:47.372Z,0.00
2023-05-05T02:26:47.674Z,0.00
2023-05-05T02:27:48.034Z,0.00
2023-05-05T02:28:48.326Z,0.00
2023-05-05T02:29:48.581Z,0.00
2023-05-05T02:30:48.947Z,0.00
2023-05-05T02:31:49.289Z,0.00
2023-05-05T02:32:49.581Z,0.00
2023-05-05T02:33:49.728Z,0.00
2023-05-05T02:34:50.001Z,0.00
2023-05-05T02:35:50.313Z,0.00
2023-05-05T02:36:50.717Z,0.00
2023-05-05T02:37:50.928Z,0.00
2023-05-05T02:38:51.229Z,0.00
2023-05-05T02:39:51.572Z,0.00
2023-05-05T02:40:51.892Z,0.00
2023-05-05T02:41:52.228Z,0.00
2023-05-05T02:42:52.430Z,0.00
2023-05-05T02:43:52.671Z,0.00
2023-05-05T02:44:52.952Z,0.00
2023-05-05T02:45:53.258Z,0.00
2023-05-05T02:46:53.560Z,0.00
2023-05-05T02:47:53.909Z,0.00
2023-05-05T02:48:54.006Z,0.00
2023-05-05T02:49:54.269Z,0.00
2023-05-05T02:50:54.699Z,0.00
2023-05-05T02:51:54.838Z,0.00
2023-05-05T02:52:55.160Z,0.00
2023-05-05T02:53:55.439Z,0.00
2023-05-05T02:54:55.709Z,0.00
2023-05-05T02:55:56.075Z,0.00
2023-05-05T02:56:56.207Z,0.00
2023-05-05T02:57:56.572Z,0.00
2023-05-05T02:58:56.853Z,0.00
2023-05-05T02:59:57.124Z,0.00
2023-05-05T03:00:57.629Z,0.00
2023-05-05T03:01:57.773Z,0.00
2023-05-05T03:02:58.129Z,0.00
2023-05-05T03:03:58.406Z,0.00
2023-05-05T03:04:58.719Z,0.00
2023-05-05T03:05:59.042Z,1.00
2023-05-05T03:06:59.317Z,0.00
2023-05-05T03:07:59.678Z,0.00
2023-05-05T03:08:59.935Z,0.00
2023-05-05T03:10:00.276Z,0.00
2023-05-05T03:11:00.546Z,0.00
2023-05-05T03:12:00.709Z,0.00
2023-05-05T03:13:00.995Z,0.00
2023-05-05T03:14:01.375Z,0.00
2023-05-05T03:15:01.516Z,0.00
2023-05-05T03:16:01.943Z,0.00
2023-05-05T03:17:02.026Z,0.00
2023-05-05T03:18:02.390Z,0.00
2023-05-05T03:19:02.501Z,0.00
2023-05-05T03:20:03.742Z,0.00
2023-05-05T03:21:03.111Z,0.00
2023-05-05T03:22:03.642Z,0.00
2023-05-05T03:23:03.692Z,0.00
2023-05-05T03:24:03.976Z,0.00
2023-05-05T03:25:04.306Z,0.00
2023-05-05T03:26:04.640Z,0.00
2023-05-05T03:27:04.912Z,1.00
2023-05-05T03:28:05.076Z,1.00
2023-05-05T03:29:09.244Z,1.00
2023-05-05T03:30:05.805Z,1.00
2023-05-05T03:31:05.945Z,1.00
2023-05-05T03:32:06.325Z,2.00
2023-05-05T03:33:06.597Z,0.00
2023-05-05T03:34:06.860Z,0.00
2023-05-05T03:35:07.150Z,2.00
2023-05-05T03:36:07.520Z,1.00
2023-05-05T03:37:07.755Z,1.00
2023-05-05T03:38:07.993Z,2.00
2023-05-05T03:39:08.375Z,1.00
2023-05-05T03:40:08.762Z,4.00
2023-05-05T03:41:08.923Z,8.00
2023-05-05T03:42:09.419Z,6.00
2023-05-05T03:43:09.439Z,5.00
2023-05-05T03:44:09.846Z,7.00
2023-05-05T03:45:10.033Z,5.00
2023-05-05T03:46:10.424Z,4.00
2023-05-05T03:47:10.613Z,5.00
2023-05-05T03:48:10.964Z,8.00
2023-05-05T03:49:11.151Z,8.00
2023-05-05T03:50:11.560Z,13.00
2023-05-05T03:51:11.723Z,13.00
2023-05-05T03:52:14.859Z,15.00
2023-05-05T03:53:12.296Z,15.00
2023-05-05T03:54:12.537Z,17.00
2023-05-05T03:55:14.483Z,17.00
2023-05-05T03:56:13.192Z,22.00
2023-05-05T03:57:13.522Z,22.00
2023-05-05T03:58:13.844Z,28.00
2023-05-05T03:59:14.203Z,31.00
2023-05-05T04:00:14.439Z,40.00
2023-05-05T04:01:14.771Z,47.00
2023-05-05T04:02:17.049Z,54.00
2023-05-05T04:03:15.594Z,58.00
2023-05-05T04:04:15.717Z,61.00
2023-05-05T04:05:16.000Z,67.00
2023-05-05T04:06:16.317Z,73.00
2023-05-05T04:07:16.661Z,77.00
2023-05-05T04:08:16.971Z,81.00
2023-05-05T04:09:17.318Z,86.00
2023-05-05T04:10:17.628Z,95.00
2023-05-05T04:11:17.944Z,97.00
2023-05-05T04:12:18.239Z,108.00
2023-05-05T04:13:18.699Z,113.00
2023-05-05T04:14:18.841Z,118.00
2023-05-05T04:15:19.175Z,124.00
2023-05-05T04:16:19.246Z,130.00
2023-05-05T04:17:19.756Z,142.00
2023-05-05T04:18:19.901Z,149.00
2023-05-05T04:19:20.314Z,156.00
2023-05-05T04:20:20.580Z,171.00
2023-05-05T04:21:20.812Z,179.00
2023-05-05T04:22:21.990Z,193.00
2023-05-05T04:23:21.391Z,207.00
2023-05-05T04:24:21.630Z,215.00
2023-05-05T04:25:21.943Z,224.00
2023-05-05T04:26:22.140Z,233.00
2023-05-05T04:27:22.373Z,242.00
2023-05-05T04:28:22.618Z,253.00
2023-05-05T04:29:22.945Z,261.00
2023-05-05T04:30:23.264Z,263.00
2023-05-05T04:31:23.480Z,274.00
2023-05-05T04:32:23.983Z,285.00
2023-05-05T04:33:23.942Z,294.00
2023-05-05T04:34:24.298Z,298.00
2023-05-05T04:35:24.502Z,302.00
2023-05-05T04:36:24.884Z,317.00
2023-05-05T04:37:25.149Z,311.00
2023-05-05T04:38:25.388Z,300.00
2023-05-05T04:39:25.741Z,297.00
2023-05-05T04:40:26.004Z,309.00
2023-05-05T04:41:26.809Z,322.00
2023-05-05T04:42:26.620Z,348.00
2023-05-05T04:43:26.778Z,362.00
2023-05-05T04:44:27.081Z,366.00
2023-05-05T04:45:27.464Z,367.00
2023-05-05T04:46:27.764Z,381.00
2023-05-05T04:47:27.942Z,382.00
2023-05-05T04:48:28.254Z,397.00
2023-05-05T04:49:28.604Z,415.00
2023-05-05T04:50:29.420Z,421.00
2023-05-05T04:51:29.078Z,445.00
2023-05-05T04:52:29.372Z,471.00
2023-05-05T04:53:29.734Z,462.00
2023-05-05T04:54:29.968Z,467.00
2023-05-05T04:55:30.172Z,473.00
2023-05-05T04:56:31.399Z,486.00
2023-05-05T04:57:30.848Z,466.00
2023-05-05T04:58:31.045Z,502.00
2023-05-05T04:59:31.275Z,523.00
2023-05-05T05:00:31.619Z,545.00
2023-05-05T05:01:31.993Z,535.00
2023-05-05T05:02:32.182Z,577.00
2023-05-05T05:03:32.629Z,579.00
2023-05-05T05:04:32.701Z,596.00
2023-05-05T05:05:32.952Z,560.00
2023-05-05T05:06:33.647Z,576.00
2023-05-05T05:07:33.622Z,578.00
2023-05-05T05:08:33.908Z,568.00
2023-05-05T05:09:34.238Z,591.00
2023-05-05T05:10:35.102Z,616.00
2023-05-05T05:11:34.677Z,615.00
2023-05-05T05:12:34.918Z,599.00
2023-05-05T05:13:35.278Z,651.00
2023-05-05T05:14:35.553Z,650.00
2023-05-05T05:15:35.754Z,593.00
2023-05-05T05:16:36.329Z,600.00
2023-05-05T05:17:36.653Z,667.00
2023-05-05T05:18:36.639Z,618.00
2023-05-05T05:19:37.072Z,612.00
2023-05-05T05:20:37.211Z,611.00
2023-05-05T05:21:37.489Z,605.00
2023-05-05T05:22:37.749Z,557.00
2023-05-05T05:23:38.074Z,569.00
2023-05-05T05:24:38.262Z,596.00
2023-05-05T05:25:38.655Z,626.00
2023-05-05T05:26:39.049Z,645.00
2023-05-05T05:27:39.357Z,638.00
2023-05-05T05:28:39.366Z,665.00
2023-05-05T05:29:39.567Z,741.00
2023-05-05T05:30:39.845Z,676.00
2023-05-05T05:31:40.525Z,675.00
2023-05-05T05:32:40.391Z,677.00
2023-05-05T05:33:40.691Z,694.00
2023-05-05T05:34:40.899Z,701.00
2023-05-05T05:35:41.112Z,674.00
2023-05-05T05:36:41.462Z,704.00
2023-05-05T05:37:41.657Z,678.00
2023-05-05T05:38:42.055Z,726.00
2023-05-05T05:39:43.698Z,750.00
2023-05-05T05:40:42.692Z,727.00
2023-05-05T05:41:42.897Z,754.00
2023-05-05T05:42:43.208Z,773.00
2023-05-05T05:43:43.530Z,773.00
2023-05-05T05:44:43.850Z,771.00
2023-05-05T05:45:44.281Z,792.00
2023-05-05T05:46:44.575Z,806.00
2023-05-05T05:47:44.624Z,814.00
2023-05-05T05:48:45.017Z,819.00
2023-05-05T05:49:45.200Z,822.00
2023-05-05T05:50:45.526Z,823.00
2023-05-05T05:51:45.847Z,826.00
2023-05-05T05:52:46.198Z,792.00
2023-05-05T05:53:46.587Z,793.00
2023-05-05T05:54:46.771Z,781.00
2023-05-05T05:55:47.168Z,740.00
2023-05-05T05:56:47.202Z,730.00
2023-05-05T05:57:47.606Z,784.00
2023-05-05T05:58:47.878Z,785.00
2023-05-05T05:59:48.085Z,751.00
2023-05-05T06:00:48.562Z,753.00
2023-05-05T06:01:48.792Z,766.00
2023-05-05T06:02:49.030Z,768.00
2023-05-05T06:03:49.534Z,756.00
2023-05-05T06:04:49.530Z,750.00
2023-05-05T06:05:49.782Z,784.00
2023-05-05T06:06:50.072Z,772.00
2023-05-05T06:07:50.325Z,775.00
2023-05-05T06:08:50.604Z,811.00
2023-05-05T06:09:50.861Z,829.00
2023-05-05T06:10:51.086Z,784.00
2023-05-05T06:11:51.393Z,841.00
2023-05-05T06:12:51.828Z,865.00
2023-05-05T06:13:52.014Z,878.00
2023-05-05T06:14:53.813Z,877.00
2023-05-05T06:15:52.652Z,875.00
2023-05-05T06:16:52.891Z,911.00
2023-05-05T06:17:54.556Z,899.00
2023-05-05T06:18:53.524Z,877.00
2023-05-05T06:19:54.580Z,912.00
2023-05-05T06:20:54.079Z,867.00
2023-05-05T06:21:54.344Z,881.00
2023-05-05T06:22:54.604Z,861.00
2023-05-05T06:23:54.910Z,869.00
2023-05-05T06:24:55.193Z,863.00
2023-05-05T06:25:55.358Z,850.00
2023-05-05T06:26:55.825Z,879.00
2023-05-05T06:27:56.020Z,879.00
2023-05-05T06:28:56.502Z,910.00
2023-05-05T06:29:56.679Z,921.00
2023-05-05T06:30:56.913Z,999.00
2023-05-05T06:31:58.140Z,941.00
2023-05-05T06:32:57.523Z,975.00
2023-05-05T06:33:57.716Z,1005.00
2023-05-05T06:34:58.155Z,890.00
2023-05-05T06:35:58.423Z,819.00
2023-05-05T06:36:58.664Z,765.00
2023-05-05T06:37:58.865Z,793.00
2023-05-05T06:38:59.243Z,811.00
2023-05-05T06:39:59.485Z,838.00
2023-05-05T06:40:59.922Z,873.00
2023-05-05T06:42:00.115Z,869.00
2023-05-05T06:43:00.297Z,924.00
2023-05-05T06:44:00.619Z,985.00
2023-05-05T06:45:00.978Z,1022.00
2023-05-05T06:46:01.216Z,1067.00
2023-05-05T06:47:01.611Z,1137.00
2023-05-05T06:48:01.692Z,1187.00
2023-05-05T06:49:02.023Z,1213.00
2023-05-05T06:50:02.247Z,1232.00
2023-05-05T06:51:02.962Z,1283.00
2023-05-05T06:52:03.025Z,1323.00
2023-05-05T06:53:03.222Z,1353.00
2023-05-05T06:54:03.501Z,1161.00
2023-05-05T06:55:03.866Z,1581.00
2023-05-05T06:56:04.065Z,1905.00
2023-05-05T06:57:04.391Z,1584.00
2023-05-05T06:58:04.579Z,1517.00
2023-05-05T06:59:04.878Z,1468.00
2023-05-05T07:00:05.462Z,1590.00
2023-05-05T07:01:05.670Z,1682.00
2023-05-05T07:02:05.782Z,1648.00
2023-05-05T07:03:06.069Z,1645.00
2023-05-05T07:04:06.342Z,2047.00
2023-05-05T07:05:06.583Z,1642.00
2023-05-05T07:06:06.839Z,1684.00
2023-05-05T07:07:07.076Z,1600.00
2023-05-05T07:08:07.407Z,1673.00
2023-05-05T07:09:07.670Z,1649.00
2023-05-05T07:10:08.095Z,1194.00
2023-05-05T07:11:08.171Z,1696.00
2023-05-05T07:12:08.440Z,1972.00
2023-05-05T07:13:08.774Z,1882.00
2023-05-05T07:14:09.023Z,1698.00
2023-05-05T07:15:19.405Z,2074.00
2023-05-05T07:16:10.542Z,2436.00
2023-05-05T07:17:09.761Z,2124.00
2023-05-05T07:18:10.149Z,2467.00
2023-05-05T07:19:10.346Z,1704.00
2023-05-05T07:20:10.945Z,2475.00
2023-05-05T07:21:10.894Z,2739.00
2023-05-05T07:22:11.296Z,1887.00
2023-05-05T07:23:11.534Z,2154.00
2023-05-05T07:24:11.768Z,2133.00
2023-05-05T07:25:12.054Z,2414.00
2023-05-05T07:26:12.290Z,2138.00
2023-05-05T07:27:12.591Z,1621.00
2023-05-05T07:28:12.852Z,2239.00
2023-05-05T07:29:13.096Z,3217.00
2023-05-05T07:30:16.316Z,1713.00
2023-05-05T07:31:13.575Z,2371.00
2023-05-05T07:32:14.040Z,2414.00
2023-05-05T07:33:14.204Z,2015.00
2023-05-05T07:34:14.474Z,2144.00
2023-05-05T07:35:15.254Z,2073.00
2023-05-05T07:36:14.932Z,2340.00
2023-05-05T07:37:15.289Z,2166.00
2023-05-05T07:38:15.885Z,1886.00
2023-05-05T07:39:15.911Z,2390.00
2023-05-05T07:40:16.145Z,2276.00
2023-05-05T07:41:16.418Z,2872.00
2023-05-05T07:42:16.680Z,2480.00
2023-05-05T07:43:16.980Z,2497.00
2023-05-05T07:44:17.179Z,5841.00
2023-05-05T07:45:18.612Z,2746.00
2023-05-05T07:46:17.778Z,2537.00
2023-05-05T07:47:18.021Z,2804.00
2023-05-05T07:48:18.294Z,2603.00
2023-05-05T07:49:18.532Z,2691.00
2023-05-05T07:50:18.849Z,2403.00
2023-05-05T07:51:19.230Z,2495.00
2023-05-05T07:52:21.494Z,2481.00
2023-05-05T07:53:20.612Z,2465.00
2023-05-05T07:54:19.866Z,2425.00
2023-05-05T07:55:20.158Z,2839.00
2023-05-05T07:56:21.766Z,2368.00
2023-05-05T07:57:20.687Z,2348.00
2023-05-05T07:58:21.034Z,2371.00
2023-05-05T07:59:21.353Z,2254.00
2023-05-05T08:00:21.599Z,2151.00
2023-05-05T08:01:21.857Z,2764.00
2023-05-05T08:02:22.140Z,3552.00
2023-05-05T08:03:22.472Z,1260.00
2023-05-05T08:04:22.783Z,2603.00
2023-05-05T08:05:22.940Z,2891.00
2023-05-05T08:06:23.282Z,3036.00
2023-05-05T08:07:23.566Z,3211.00
2023-05-05T08:08:23.771Z,2183.00
2023-05-05T08:09:24.175Z,1692.00
2023-05-05T08:10:24.518Z,3002.00
2023-05-05T08:11:24.636Z,1984.00
2023-05-05T08:12:25.081Z,3312.00
2023-05-05T08:13:25.301Z,3375.00
2023-05-05T08:14:25.529Z,2521.00
2023-05-05T08:15:25.836Z,2534.00
2023-05-05T08:16:26.187Z,2770.00
2023-05-05T08:17:26.372Z,6348.00
2023-05-05T08:18:26.538Z,4629.00
2023-05-05T08:19:29.602Z,1643.00
2023-05-05T08:20:27.197Z,5470.00
2023-05-05T08:21:27.413Z,1353.00
2023-05-05T08:22:27.785Z,3966.00
2023-05-05T08:23:28.046Z,4476.00
2023-05-05T08:24:28.344Z,3792.00
2023-05-05T08:25:28.552Z,4859.00
2023-05-05T08:26:28.932Z,2228.00
2023-05-05T08:27:29.294Z,4339.00
2023-05-05T08:28:29.479Z,4629.00
2023-05-05T08:29:29.798Z,4588.00
2023-05-05T08:30:30.056Z,4821.00
2023-05-05T08:31:30.506Z,4667.00
2023-05-05T08:32:31.731Z,4485.00
2023-05-05T08:33:31.038Z,4640.00
2023-05-05T08:34:31.247Z,4768.00
2023-05-05T08:35:31.473Z,4386.00
2023-05-05T08:36:31.996Z,4710.00
2023-05-05T08:37:32.022Z,4560.00
2023-05-05T08:38:32.450Z,4747.00
2023-05-05T08:39:32.612Z,4520.00
2023-05-05T08:40:32.836Z,4512.00
2023-05-05T08:41:37.414Z,4870.00
2023-05-05T08:42:38.204Z,5033.00
2023-05-05T08:43:34.999Z,5093.00
2023-05-05T08:44:34.028Z,5082.00
2023-05-05T08:45:34.291Z,4911.00
2023-05-05T08:46:34.834Z,4949.00
2023-05-05T08:47:34.860Z,5098.00
2023-05-05T08:48:35.080Z,5083.00
2023-05-05T08:49:35.298Z,4952.00
2023-05-05T08:50:35.676Z,5337.00
2023-05-05T08:51:35.928Z,4911.00
2023-05-05T08:52:36.347Z,5046.00
2023-05-05T08:53:36.517Z,4846.00
2023-05-05T08:54:36.847Z,5718.00
2023-05-05T08:55:37.035Z,6470.00
2023-05-05T08:56:37.320Z,4671.00
2023-05-05T08:57:37.545Z,5147.00
2023-05-05T08:58:37.763Z,4709.00
2023-05-05T08:59:38.039Z,5228.00
2023-05-05T09:00:38.383Z,5538.00
2023-05-05T09:01:38.769Z,5252.00
2023-05-05T09:02:39.910Z,6810.00
2023-05-05T09:03:39.144Z,5290.00
2023-05-05T09:04:39.319Z,5451.00
2023-05-05T09:05:39.678Z,5634.00
2023-05-05T09:06:39.944Z,5938.00
2023-05-05T09:07:40.136Z,4544.00
2023-05-05T09:08:40.345Z,7251.00
2023-05-05T09:09:40.957Z,5886.00
2023-05-05T09:10:41.162Z,5929.00
2023-05-05T09:11:41.415Z,6083.00
2023-05-05T09:12:41.701Z,6737.00
2023-05-05T09:13:41.929Z,6807.00
2023-05-05T09:14:42.128Z,6468.00
2023-05-05T09:15:42.576Z,6230.00
2023-05-05T09:16:42.836Z,6385.00
2023-05-05T09:17:43.202Z,6174.00
2023-05-05T09:18:43.240Z,6024.00
2023-05-05T09:19:46.057Z,6555.00
2023-05-05T09:20:43.938Z,5601.00
2023-05-05T09:21:44.203Z,4293.00
2023-05-05T09:22:44.446Z,5941.00
2023-05-05T09:23:44.676Z,5625.00
2023-05-05T09:24:45.053Z,4908.00
2023-05-05T09:25:45.575Z,5441.00
2023-05-05T09:26:45.857Z,4799.00
2023-05-05T09:27:45.822Z,5020.00
2023-05-05T09:28:46.184Z,5090.00
2023-05-05T09:29:46.527Z,4758.00
2023-05-05T09:30:46.769Z,5654.00
2023-05-05T09:31:47.108Z,5026.00
2023-05-05T09:32:47.330Z,4760.00
2023-05-05T09:33:47.622Z,5451.00
2023-05-05T09:34:47.818Z,5860.00
2023-05-05T09:35:48.150Z,6231.00
2023-05-05T09:36:48.508Z,6476.00
2023-05-05T09:37:49.061Z,6724.00
2023-05-05T09:38:50.165Z,7054.00
2023-05-05T09:39:49.488Z,6370.00
2023-05-05T09:40:49.697Z,7248.00
2023-05-05T09:41:50.009Z,7285.00
2023-05-05T09:42:50.201Z,7057.00
2023-05-05T09:43:53.475Z,7239.00
2023-05-05T09:44:51.663Z,6774.00
2023-05-05T09:45:51.047Z,6651.00
2023-05-05T09:46:51.769Z,7741.00
2023-05-05T09:47:53.227Z,6302.00
2023-05-05T09:48:52.875Z,6466.00
2023-05-05T09:49:52.260Z,7207.00
2023-05-05T09:50:53.120Z,4549.00
2023-05-05T09:51:52.742Z,7704.00
2023-05-05T09:52:52.994Z,9624.00
2023-05-05T09:53:53.179Z,8307.00
2023-05-05T09:54:53.364Z,7245.00
2023-05-05T09:56:01.626Z,8624.00
2023-05-05T09:56:54.090Z,8047.00
2023-05-05T09:57:54.410Z,8304.00
2023-05-05T09:58:54.606Z,8346.00
2023-05-05T09:59:54.891Z,8312.00
2023-05-05T10:00:55.164Z,5066.00
2023-05-05T10:01:55.359Z,4331.00
2023-05-05T10:02:55.631Z,3934.00
2023-05-05T10:03:56.813Z,4014.00
2023-05-05T10:04:56.274Z,2882.00
2023-05-05T10:05:56.520Z,4515.00
2023-05-05T10:06:56.734Z,6937.00
2023-05-05T10:07:57.920Z,6754.00
2023-05-05T10:08:58.153Z,5538.00
2023-05-05T10:09:57.503Z,6253.00
2023-05-05T10:10:57.704Z,5069.00
2023-05-05T10:11:58.083Z,4459.00
2023-05-05T10:12:58.347Z,15483.00
2023-05-05T10:13:58.530Z,4210.00
2023-05-05T10:14:58.765Z,7164.00
2023-05-05T10:15:59.180Z,4385.00
2023-05-05T10:16:59.373Z,4058.00
2023-05-05T10:18:07.342Z,13548.00
2023-05-05T10:19:00.826Z,3642.00
2023-05-05T10:20:00.320Z,2315.00
2023-05-05T10:21:00.890Z,2219.00
2023-05-05T10:22:00.789Z,2096.00
2023-05-05T10:23:01.019Z,2026.00
2023-05-05T10:24:01.550Z,2059.00
2023-05-05T10:25:01.585Z,2597.00
2023-05-05T10:26:01.822Z,2726.00
2023-05-05T10:27:02.025Z,3170.00
2023-05-05T10:28:02.531Z,3208.00
2023-05-05T10:29:02.754Z,4175.00
2023-05-05T10:30:02.986Z,3417.00
2023-05-05T10:31:12.847Z,4409.00
2023-05-05T10:32:21.382Z,5408.00
2023-05-05T10:33:18.566Z,3934.00
2023-05-05T10:34:05.405Z,2650.00
2023-05-05T10:35:04.477Z,15658.00
2023-05-05T10:36:04.931Z,5250.00
2023-05-05T10:37:05.149Z,3181.00
2023-05-05T10:38:05.485Z,10027.00
2023-05-05T10:39:05.806Z,6896.00
2023-05-05T10:40:06.222Z,8800.00
2023-05-05T10:41:06.313Z,14735.00
2023-05-05T10:42:06.845Z,5966.00
2023-05-05T10:43:07.093Z,7723.00
2023-05-05T10:44:07.638Z,13185.00
2023-05-05T10:45:07.583Z,4459.00
2023-05-05T10:46:07.949Z,4412.00
2023-05-05T10:47:08.229Z,4560.00
2023-05-05T10:48:08.709Z,7515.00
2023-05-05T10:50:09.363Z,4526.00
2023-05-05T10:51:09.260Z,5998.00
2023-05-05T10:52:09.607Z,6848.00
2023-05-05T10:53:09.934Z,6558.00
2023-05-05T10:54:10.178Z,6191.00
2023-05-05T10:55:10.437Z,5294.00
2023-05-05T10:56:10.641Z,9109.00
2023-05-05T10:57:11.047Z,9720.00
2023-05-05T10:58:11.315Z,10118.00
2023-05-05T10:59:11.524Z,11164.00
2023-05-05T11:00:12.934Z,7094.00
2023-05-05T11:01:12.122Z,9717.00
2023-05-05T11:02:12.523Z,4464.00
2023-05-05T11:03:12.770Z,4479.00
2023-05-05T11:04:12.995Z,4486.00
2023-05-05T11:05:13.311Z,4853.00
2023-05-05T11:06:13.570Z,3898.00
2023-05-05T11:07:15.125Z,10629.00
2023-05-05T11:08:14.125Z,11604.00
2023-05-05T11:09:14.748Z,14020.00
2023-05-05T11:10:15.070Z,15127.00
2023-05-05T11:11:15.021Z,14364.00
2023-05-05T11:12:15.214Z,14559.00
2023-05-05T11:13:15.544Z,20393.00
2023-05-05T11:14:15.892Z,15005.00
2023-05-05T11:15:16.155Z,14238.00
2023-05-05T11:16:16.411Z,6483.00
2023-05-05T11:17:16.704Z,12958.00
2023-05-05T11:18:17.092Z,2321.00
2023-05-05T11:19:17.330Z,3626.00
2023-05-05T11:20:17.650Z,3741.00
2023-05-05T11:21:18.066Z,4166.00
2023-05-05T11:22:18.242Z,3833.00
2023-05-05T11:23:18.354Z,12660.00
2023-05-05T11:24:18.700Z,4633.00
2023-05-05T11:25:19.040Z,6536.00
2023-05-05T11:26:19.404Z,5637.00
2023-05-05T11:27:19.651Z,5985.00
2023-05-05T11:28:19.993Z,4832.00
2023-05-05T11:29:20.301Z,3931.00
2023-05-05T11:30:20.707Z,4381.00
2023-05-05T11:31:21.033Z,3369.00
2023-05-05T11:32:21.219Z,3001.00
2023-05-05T11:33:21.586Z,3257.00
2023-05-05T11:34:21.902Z,2519.00
2023-05-05T11:35:22.256Z,1848.00
2023-05-05T11:36:22.540Z,4823.00
2023-05-05T11:37:22.789Z,3718.00
2023-05-05T11:38:23.155Z,3124.00
2023-05-05T11:39:23.392Z,2975.00
2023-05-05T11:40:23.685Z,3173.00
2023-05-05T11:41:24.121Z,3648.00
2023-05-05T11:42:24.152Z,4140.00
2023-05-05T11:43:24.662Z,4270.00
2023-05-05T11:44:24.638Z,3610.00
2023-05-05T11:45:24.896Z,7468.00
2023-05-05T11:46:25.211Z,3811.00
2023-05-05T11:47:25.387Z,5881.00
2023-05-05T11:48:25.752Z,73941.00
2023-05-05T11:49:25.963Z,78529.00
2023-05-05T11:50:26.244Z,75307.00
2023-05-05T11:51:26.714Z,76852.00
2023-05-05T11:52:26.801Z,76690.00
2023-05-05T11:53:26.993Z,5920.00
2023-05-05T11:54:27.285Z,77217.00
2023-05-05T11:55:27.506Z,6230.00
2023-05-05T11:56:27.893Z,6437.00
2023-05-05T11:57:28.149Z,6291.00
2023-05-05T11:58:28.375Z,6039.00
2023-05-05T11:59:28.771Z,27240.00
2023-05-05T12:00:28.931Z,27335.00
2023-05-05T12:01:29.139Z,19939.00
2023-05-05T12:02:29.575Z,7425.00
2023-05-05T12:03:29.921Z,3978.00
2023-05-05T12:04:30.127Z,4741.00
2023-05-05T12:05:30.617Z,4415.00
2023-05-05T12:06:30.751Z,4252.00
2023-05-05T12:07:31.087Z,3650.00
2023-05-05T12:08:31.335Z,3003.00
2023-05-05T12:09:31.595Z,3106.00
2023-05-05T12:10:31.806Z,5353.00
2023-05-05T12:11:32.194Z,5686.00
2023-05-05T12:12:32.471Z,6100.00
2023-05-05T12:13:32.775Z,6086.00
2023-05-05T12:14:33.036Z,5806.00
2023-05-05T12:15:33.355Z,6942.00
2023-05-05T12:16:33.729Z,3700.00
2023-05-05T12:17:33.939Z,5824.00
2023-05-05T12:18:34.432Z,3656.00
2023-05-05T12:19:34.396Z,5014.00
2023-05-05T12:20:34.732Z,4903.00
2023-05-05T12:21:35.050Z,4781.00
2023-05-05T12:22:35.530Z,5012.00
2023-05-05T12:23:35.748Z,3802.00
2023-05-05T12:24:36.101Z,4882.00
2023-05-05T12:25:36.212Z,5219.00
2023-05-05T12:26:36.413Z,3570.00
2023-05-05T12:27:36.767Z,4849.00
2023-05-05T12:28:37.090Z,4022.00
2023-05-05T12:29:37.558Z,3715.00
2023-05-05T12:30:37.892Z,3825.00
2023-05-05T12:31:38.086Z,3794.00
2023-05-05T12:32:38.444Z,4134.00
2023-05-05T12:33:38.608Z,3630.00
2023-05-05T12:34:38.986Z,3728.00
2023-05-05T12:35:39.210Z,3941.00